Time;durP1;ratioP1;P1;durP2;ratioP2;P2;SDS_P1;SDS_P2;PMS_P1;PMS_P2;Temp;Humidity;BMP_temperature;BMP_pressure;BME280_temperature;BME280_humidity;BME280_pressure;Samples;Min_cycle;Max_cycle;Signal;HPM_P1;HPM_P2
2023/02/07 00:00:28;;;;;;;;;3.25;3.25;;;;;20.78;39.33;103544.56;5056059;28;45554;-72
2023/02/07 00:02:55;;;;;;;;;4.00;3.00;;;;;20.76;39.57;103549.13;5056517;28;45189;-72
2023/02/07 00:05:21;;;;;;;;;4.33;2.33;;;;;20.69;39.15;103539.91;5056363;28;47156;-72
2023/02/07 00:07:46;;;;;;;;;2.33;2.33;;;;;20.77;39.30;103542.00;5056361;28;45627;-72
2023/02/07 00:10:12;;;;;;;;;5.00;4.67;;;;;20.77;39.49;103540.22;5056702;28;45419;-71
2023/02/07 00:12:37;;;;;;;;;4.00;2.67;;;;;20.77;39.05;103536.72;5057197;28;45277;-72
2023/02/07 00:15:03;;;;;;;;;4.00;3.67;;;;;20.74;39.31;103525.41;5058229;28;45987;-72
2023/02/07 00:17:29;;;;;;;;;3.33;3.33;;;;;20.76;39.42;103522.66;5056520;28;45364;-72
2023/02/07 00:19:54;;;;;;;;;4.67;3.67;;;;;20.76;39.38;103532.41;5056374;28;45443;-72
2023/02/07 00:22:19;;;;;;;;;6.00;3.00;;;;;20.75;38.99;103531.56;5038118;28;45359;-72
2023/02/07 00:24:45;;;;;;;;;3.67;3.67;;;;;20.74;39.29;103520.13;5056033;28;46035;-72
2023/02/07 00:27:10;;;;;;;;;2.67;2.00;;;;;20.75;39.61;103513.03;5056297;28;45463;-72
2023/02/07 00:29:36;;;;;;;;;4.33;3.00;;;;;20.75;39.10;103523.63;5055746;28;45402;-72
2023/02/07 00:32:01;;;;;;;;;1.00;1.00;;;;;20.73;39.48;103515.78;5056569;28;45478;-72
2023/02/07 00:34:27;;;;;;;;;4.00;3.00;;;;;20.74;39.24;103512.19;5056084;28;45348;-72
2023/02/07 00:36:52;;;;;;;;;4.67;2.33;;;;;20.73;38.97;103513.16;5055752;28;45812;-72
2023/02/07 00:39:17;;;;;;;;;1.00;1.00;;;;;20.73;39.42;103509.66;5056168;28;45453;-72
2023/02/07 00:41:43;;;;;;;;;5.00;3.25;;;;;20.73;39.12;103510.50;5055591;28;45305;-72
2023/02/07 00:44:10;;;;;;;;;4.00;3.00;;;;;20.73;39.17;103505.22;5055898;28;46162;-72
2023/02/07 00:46:36;;;;;;;;;3.00;2.75;;;;;20.72;39.06;103506.16;5055073;28;45379;-72
2023/02/07 00:49:03;;;;;;;;;3.67;3.33;;;;;20.68;39.03;103494.09;5055421;28;45356;-72
2023/02/07 00:51:29;;;;;;;;;3.00;3.00;;;;;20.74;39.03;103509.53;5042936;28;45447;-72
2023/02/07 00:53:54;;;;;;;;;3.75;3.75;;;;;20.74;39.07;103506.88;5055290;28;47124;-72
2023/02/07 00:56:24;;;;;;;;;3.33;3.33;;;;;20.74;38.84;103509.53;5055851;28;45486;-72
2023/02/07 00:58:50;;;;;;;;;3.67;2.33;;;;;20.75;39.03;103502.44;5042226;28;45432;-72
2023/02/07 01:01:15;;;;;;;;;3.00;3.00;;;;;20.75;39.24;103505.09;5054989;28;45442;-72
2023/02/07 01:03:41;;;;;;;;;3.33;3.33;;;;;20.76;39.11;103503.28;5055512;28;46133;-71
2023/02/07 01:06:08;;;;;;;;;2.00;2.00;;;;;20.74;39.39;103501.59;5055369;28;45421;-72
2023/02/07 01:08:34;;;;;;;;;3.50;3.50;;;;;20.76;39.20;103500.66;5055905;28;45334;-72
2023/02/07 01:11:05;;;;;;;;;2.00;2.00;;;;;20.76;38.82;103498.00;5048355;28;45345;-72
2023/02/07 01:13:30;;;;;;;;;2.00;2.00;;;;;20.73;39.52;103493.78;5055011;28;46618;-72
2023/02/07 01:15:56;;;;;;;;;3.00;1.00;;;;;20.63;39.12;103475.06;5055847;28;45400;-72
2023/02/07 01:18:21;;;;;;;;;3.50;3.00;;;;;20.74;38.96;103488.38;5055405;28;45478;-72
2023/02/07 01:20:46;;;;;;;;;4.00;4.00;;;;;20.74;39.33;103493.66;5055674;28;45385;-72
2023/02/07 01:23:12;;;;;;;;;4.00;3.00;;;;;20.75;39.12;103489.22;5055318;28;46831;-72
2023/02/07 01:25:39;;;;;;;;;3.25;3.25;;;;;20.73;39.27;103494.63;5055306;28;45365;-72
2023/02/07 01:28:04;;;;;;;;;2.33;2.33;;;;;20.69;38.96;103481.69;5055281;28;45420;-72
2023/02/07 01:30:30;;;;;;;;;4.00;4.00;;;;;20.73;38.90;103491.97;5055354;28;45372;-72
2023/02/07 01:32:56;;;;;;;;;5.00;5.00;;;;;20.73;38.97;103491.13;5055065;28;46248;-72
2023/02/07 01:35:22;;;;;;;;;3.75;3.00;;;;;20.72;39.22;103492.91;5055119;28;45348;-71
2023/02/07 01:37:47;;;;;;;;;3.50;2.75;;;;;20.64;38.98;103482.00;5055201;28;45401;-71
2023/02/07 01:40:13;;;;;;;;;5.00;4.00;;;;;20.66;39.22;103484.56;5055188;28;45488;-72
2023/02/07 01:42:38;;;;;;;;;3.25;3.00;;;;;20.68;39.17;103487.94;5054434;28;45602;-72
2023/02/07 01:45:29;;;;;;;;;2.00;2.00;;;;;20.72;39.40;103497.34;5055213;28;45349;-72
2023/02/07 01:47:58;;;;;;;;;3.00;3.00;;;;;20.71;39.10;103500.97;5053024;28;45370;-71
2023/02/07 01:50:25;;;;;;;;;3.75;3.75;;;;;20.71;39.05;103504.44;5054860;28;45415;-72
2023/02/07 01:52:51;;;;;;;;;4.00;3.00;;;;;20.69;38.88;103509.00;5054495;28;45427;-72
2023/02/07 01:55:24;;;;;;;;;3.67;3.00;;;;;20.70;39.33;103500.13;5055241;28;45441;-72
2023/02/07 01:57:50;;;;;;;;;4.00;4.00;;;;;20.70;38.96;103501.91;5054571;28;45440;-72
2023/02/07 02:00:16;;;;;;;;;3.50;3.50;;;;;20.65;39.06;103494.31;5058231;28;45427;-71
2023/02/07 02:02:43;;;;;;;;;3.00;3.00;;;;;20.70;39.27;103501.91;5058130;28;45284;-72
2023/02/07 02:05:09;;;;;;;;;3.25;2.00;;;;;20.70;38.84;103496.63;5058559;28;45396;-71
2023/02/07 02:07:36;;;;;;;;;1.00;1.00;;;;;20.70;38.82;103499.28;5058477;28;45482;-72
2023/02/07 02:10:06;;;;;;;;;3.33;3.33;;;;;20.58;39.04;103475.34;5058938;28;45523;-72
2023/02/07 02:12:37;;;;;;;;;3.75;3.75;;;;;20.69;39.27;103495.78;5057795;28;46166;-72
2023/02/07 02:15:25;;;;;;;;;2.00;2.00;;;;;20.68;39.54;103496.75;5057768;28;45343;-72
2023/02/07 02:18:05;;;;;;;;;2.50;2.50;;;;;20.68;39.16;103499.38;5047929;28;45336;-72
2023/02/07 02:21:08;;;;;;;;;3.25;3.00;;;;;20.69;38.87;103505.50;5058004;28;45416;-71
2023/02/07 02:23:39;;;;;;;;;3.75;3.75;;;;;20.69;38.60;103497.56;5057599;28;46236;-72
2023/02/07 02:26:26;;;;;;;;;4.00;2.00;;;;;20.69;38.76;103497.56;5057908;28;45309;-72
2023/02/07 02:29:29;;;;;;;;;4.00;4.00;;;;;20.69;38.66;103502.84;5046077;28;45453;-71
2023/02/07 02:32:31;;;;;;;;;2.00;2.00;;;;;20.68;38.81;103499.38;5058131;28;45504;-71
2023/02/07 02:35:07;;;;;;;;;3.00;2.67;;;;;20.69;38.98;103489.63;5057741;28;46159;-72
2023/02/07 02:37:44;;;;;;;;;2.25;2.25;;;;;20.69;38.72;103494.91;5056882;28;45449;-72
2023/02/07 02:40:18;;;;;;;;;4.50;3.00;;;;;20.68;38.61;103499.38;5057420;28;45459;-71
2023/02/07 02:42:51;;;;;;;;;2.00;2.00;;;;;20.69;38.68;103493.13;5057910;28;46002;-72
2023/02/07 02:45:22;;;;;;;;;3.67;3.00;;;;;20.67;39.01;103488.91;5057978;28;45464;-72
2023/02/07 02:47:50;;;;;;;;;2.33;1.67;;;;;20.69;38.70;103487.84;5057148;28;45454;-72
2023/02/07 02:50:23;;;;;;;;;2.50;2.50;;;;;20.69;38.77;103487.84;5057012;28;45382;-71
2023/02/07 02:52:48;;;;;;;;;2.50;2.50;;;;;20.58;39.00;103474.53;5057307;28;45814;-72
2023/02/07 02:55:15;;;;;;;;;4.25;3.00;;;;;20.68;38.99;103496.75;5057043;28;47248;-72
2023/02/07 02:57:49;;;;;;;;;4.75;3.50;;;;;20.69;39.23;103489.63;5055441;28;45482;-72
2023/02/07 03:01:00;;;;;;;;;1.00;1.00;;;;;20.69;38.80;103486.97;5057654;28;45416;-71
2023/02/07 03:03:38;;;;;;;;;3.00;2.00;;;;;20.68;39.07;103480.03;4952610;28;45687;-72
2023/02/07 03:06:26;;;;;;;;;3.00;3.00;;;;;20.68;39.12;103486.16;4955848;28;45352;-72
2023/02/07 03:09:23;;;;;;;;;2.00;2.00;;;;;20.67;38.94;103480.97;4952393;28;45399;-72
2023/02/07 03:11:57;;;;;;;;;4.67;3.00;;;;;20.65;38.65;103478.44;4955713;28;45567;-71
2023/02/07 03:15:03;;;;;;;;;3.33;3.33;;;;;20.67;38.79;103480.97;4956025;28;45365;-72
2023/02/07 03:17:51;;;;;;;;;2.00;2.00;;;;;20.59;39.01;103468.25;4917284;28;46222;-72
2023/02/07 03:20:23;;;;;;;;;4.25;2.25;;;;;20.67;38.76;103480.97;4917290;28;45419;-71
2023/02/07 03:22:52;;;;;;;;;2.00;2.00;;;;;20.56;38.94;103455.25;4917244;28;45410;-71
2023/02/07 03:25:20;;;;;;;;;2.67;2.67;;;;;20.65;39.10;103462.56;4917386;28;45348;-72
2023/02/07 03:27:47;;;;;;;;;5.67;2.00;;;;;20.67;39.04;103459.78;4916935;28;46075;-72
2023/02/07 03:30:16;;;;;;;;;3.33;3.00;;;;;20.61;39.27;103448.69;4900986;28;45880;-71
2023/02/07 03:32:45;;;;;;;;;3.00;3.00;;;;;20.65;38.72;103459.91;4917575;28;45475;-72
2023/02/07 03:35:41;;;;;;;;;3.00;3.00;;;;;20.60;39.06;103446.16;4916802;28;45297;-72
2023/02/07 03:38:07;;;;;;;;;4.00;3.00;;;;;20.67;39.02;103459.78;4925596;28;46222;-71
2023/02/07 03:40:39;;;;;;;;;3.00;3.00;;;;;20.67;38.96;103470.38;4974984;28;45455;-72
2023/02/07 03:43:09;;;;;;;;;3.67;2.67;;;;;20.60;38.75;103454.09;4974991;28;45425;-72
2023/02/07 03:45:35;;;;;;;;;3.00;2.50;;;;;20.59;38.66;103458.53;4975102;28;45244;-72
2023/02/07 03:48:00;;;;;;;;;3.00;3.00;;;;;20.65;38.89;103478.44;4974939;28;46065;-72
2023/02/07 03:50:26;;;;;;;;;2.25;2.00;;;;;20.63;38.60;103470.59;4974974;28;45401;-71
2023/02/07 03:52:51;;;;;;;;;2.00;2.00;;;;;20.63;38.93;103465.28;5012298;28;45371;-72
2023/02/07 03:55:17;;;;;;;;;3.00;3.00;;;;;20.59;38.67;103447.09;5057190;28;45286;-72
2023/02/07 03:57:42;;;;;;;;;2.00;2.00;;;;;20.62;39.02;103450.41;5054361;28;46413;-71
2023/02/07 04:00:09;;;;;;;;;4.00;3.00;;;;;20.60;38.64;103438.22;5056180;28;45347;-72
2023/02/07 04:02:34;;;;;;;;;3.75;2.50;;;;;20.65;38.74;103449.34;5056775;28;45452;-71
2023/02/07 04:05:00;;;;;;;;;4.00;4.00;;;;;20.65;38.50;103461.72;5056618;28;45395;-72
2023/02/07 04:07:25;;;;;;;;;4.00;3.00;;;;;20.66;38.41;103460.75;5055694;28;47044;-72
2023/02/07 04:09:51;;;;;;;;;3.75;3.75;;;;;20.65;38.39;103451.97;5056608;28;45366;-72
2023/02/07 04:12:16;;;;;;;;;4.25;3.00;;;;;20.62;38.59;103444.25;5056309;28;45751;-72
2023/02/07 04:14:41;;;;;;;;;3.00;3.00;;;;;20.65;38.53;103449.34;5056426;28;45711;-71
2023/02/07 04:17:07;;;;;;;;;4.00;4.00;;;;;20.66;38.54;103452.84;5056088;28;46294;-72
2023/02/07 04:19:32;;;;;;;;;4.50;2.25;;;;;20.66;38.52;103453.66;5055504;28;45403;-72
2023/02/07 04:21:57;;;;;;;;;3.75;3.00;;;;;20.65;38.55;103449.34;5055490;28;45403;-72
2023/02/07 04:24:23;;;;;;;;;2.00;2.00;;;;;20.66;38.79;103453.66;5056727;28;45391;-72
2023/02/07 04:26:48;;;;;;;;;2.50;2.50;;;;;20.66;38.73;103461.59;5056288;28;45979;-72
2023/02/07 04:29:13;;;;;;;;;2.75;2.75;;;;;20.66;38.45;103466.88;5056453;28;45435;-71
2023/02/07 04:31:41;;;;;;;;;2.25;2.25;;;;;20.67;38.83;103468.59;5056190;28;45443;-72
2023/02/07 04:34:06;;;;;;;;;3.00;3.00;;;;;20.67;38.62;103473.03;5056095;28;45437;-72
2023/02/07 04:36:31;;;;;;;;;2.33;2.00;;;;;20.66;38.74;103466.06;5055472;28;46174;-72
2023/02/07 04:38:57;;;;;;;;;4.00;3.50;;;;;20.66;38.78;103453.66;5055855;28;45436;-72
2023/02/07 04:41:23;;;;;;;;;5.25;4.00;;;;;20.66;38.70;103461.59;5056015;28;45451;-72
2023/02/07 04:43:49;;;;;;;;;3.00;3.00;;;;;20.59;38.41;103439.16;5056656;28;45292;-72
2023/02/07 04:46:14;;;;;;;;;3.00;2.25;;;;;20.66;38.82;103455.47;5055568;28;47003;-72
2023/02/07 04:48:39;;;;;;;;;1.00;1.00;;;;;20.57;38.77;103433.16;5056015;28;45406;-72
2023/02/07 04:51:05;;;;;;;;;3.00;3.00;;;;;20.66;38.73;103463.41;5055383;28;45485;-72
2023/02/07 04:53:31;;;;;;;;;2.00;2.00;;;;;20.66;38.45;103458.13;5055829;28;45433;-72
2023/02/07 04:55:57;;;;;;;;;2.00;2.00;;;;;20.66;38.58;103458.13;5055689;28;45532;-72
2023/02/07 04:58:22;;;;;;;;;3.00;1.00;;;;;20.58;38.82;103446.25;5053663;28;45432;-72
2023/02/07 05:00:48;;;;;;;;;3.00;3.00;;;;;20.64;38.59;103468.78;5041044;28;45514;-72
2023/02/07 05:03:13;;;;;;;;;3.00;2.50;;;;;20.54;38.46;103452.72;5055841;28;45454;-72
2023/02/07 05:05:41;;;;;;;;;5.00;3.50;;;;;20.63;38.98;103467.94;5055081;28;45405;-72
2023/02/07 05:08:07;;;;;;;;;0.00;0.00;;;;;20.63;38.65;103461.81;5056065;28;45186;-72
2023/02/07 05:10:33;;;;;;;;;3.50;2.00;;;;;20.63;38.56;103464.47;5055461;28;45520;-72
2023/02/07 05:12:58;;;;;;;;;2.75;2.75;;;;;20.54;38.53;103462.44;5055790;28;45576;-72
2023/02/07 05:15:23;;;;;;;;;3.00;3.00;;;;;20.63;38.50;103475.06;5054897;28;46129;-72
2023/02/07 05:17:51;;;;;;;;;4.00;3.00;;;;;20.62;38.88;103482.13;5055825;28;45294;-72
2023/02/07 05:20:16;;;;;;;;;3.67;2.00;;;;;20.63;38.70;103496.22;5055170;28;45478;-72
2023/02/07 05:22:42;;;;;;;;;3.00;3.00;;;;;20.62;38.73;103492.72;5055303;28;45561;-72
2023/02/07 05:25:07;;;;;;;;;1.75;1.75;;;;;20.62;38.71;103497.16;5055094;28;46306;-72
2023/02/07 05:27:32;;;;;;;;;3.75;2.75;;;;;20.60;38.57;103497.28;5055082;28;45394;-72
2023/02/07 05:29:58;;;;;;;;;1.00;1.00;;;;;20.62;38.71;103494.50;5055063;28;45602;-72
2023/02/07 05:35:08;;;;;;;;;4.00;2.50;;;;;20.58;38.68;103485.94;5058403;28;45785;-72
2023/02/07 05:37:33;;;;;;;;;4.00;2.00;;;;;20.61;38.67;103484.88;5040993;28;45333;-72
2023/02/07 05:39:59;;;;;;;;;2.00;2.00;;;;;20.55;38.61;103480.03;5059005;28;45451;-72
2023/02/07 05:42:24;;;;;;;;;4.50;4.00;;;;;20.57;38.59;103472.81;5058993;28;45481;-72
2023/02/07 05:44:50;;;;;;;;;4.00;2.00;;;;;20.61;38.30;103479.56;5058707;28;47002;-71
2023/02/07 05:47:15;;;;;;;;;4.25;3.75;;;;;20.61;38.28;103482.22;5058986;28;45393;-72
2023/02/07 05:49:41;;;;;;;;;2.00;2.00;;;;;20.60;38.62;103485.84;5058513;28;45428;-72
2023/02/07 05:52:07;;;;;;;;;3.50;3.50;;;;;20.61;38.53;103491.00;5058914;28;45413;-72
2023/02/07 05:54:33;;;;;;;;;4.25;3.00;;;;;20.61;38.29;103493.66;5058460;28;46022;-72
2023/02/07 05:56:58;;;;;;;;;3.25;3.00;;;;;20.62;38.37;103502.44;5058631;28;45391;-72
2023/02/07 05:59:23;;;;;;;;;3.00;3.00;;;;;20.49;38.38;103484.78;5057071;28;45481;-72
2023/02/07 06:01:49;;;;;;;;;3.00;3.00;;;;;20.57;38.37;103494.84;5058560;28;45650;-72
2023/02/07 06:04:14;;;;;;;;;4.00;4.00;;;;;20.60;38.41;103502.56;5057606;28;46305;-72
2023/02/07 06:06:39;;;;;;;;;3.25;3.25;;;;;20.57;38.53;103496.63;5058915;28;45496;-72
2023/02/07 06:09:05;;;;;;;;;4.00;2.00;;;;;20.58;38.27;103493.84;5058743;28;45361;-72
2023/02/07 06:11:30;;;;;;;;;5.25;4.00;;;;;20.62;38.26;103511.22;5058614;28;45412;-72
2023/02/07 06:13:55;;;;;;;;;4.50;3.25;;;;;20.62;38.27;103510.38;5058036;28;46154;-72
2023/02/07 06:16:21;;;;;;;;;2.00;2.00;;;;;20.62;38.32;103508.59;5058798;28;45379;-72
2023/02/07 06:18:46;;;;;;;;;3.00;3.00;;;;;20.59;38.10;103506.16;5058075;28;45352;-72
2023/02/07 06:21:11;;;;;;;;;3.25;2.50;;;;;20.58;38.28;103506.25;5058492;28;45500;-72
2023/02/07 06:23:37;;;;;;;;;4.75;3.00;;;;;20.61;38.51;103514.81;5041273;28;45518;-72
2023/02/07 06:26:02;;;;;;;;;3.00;3.00;;;;;20.61;38.04;103522.75;5048475;28;45479;-72
2023/02/07 06:28:28;;;;;;;;;2.00;2.00;;;;;20.60;38.49;103523.72;5058375;28;45391;-72
2023/02/07 06:30:53;;;;;;;;;2.75;2.00;;;;;20.60;38.45;103534.31;5058146;28;45304;-72
2023/02/07 06:33:19;;;;;;;;;2.00;2.00;;;;;20.60;38.58;103529.00;5057001;28;47156;-72
2023/02/07 06:35:47;;;;;;;;;3.25;3.25;;;;;20.60;38.64;103529.00;5057840;28;45410;-72
2023/02/07 06:38:15;;;;;;;;;4.00;3.75;;;;;20.55;38.28;103515.25;5057895;28;45498;-72
2023/02/07 06:40:40;;;;;;;;;3.75;2.50;;;;;20.60;37.95;103534.31;5058225;28;45329;-72
2023/02/07 06:43:06;;;;;;;;;3.25;2.50;;;;;20.60;38.14;103544.88;5056861;28;46293;-72
2023/02/07 06:45:31;;;;;;;;;4.75;3.00;;;;;20.59;38.51;103543.19;5057539;28;45437;-72
2023/02/07 06:47:57;;;;;;;;;2.00;2.00;;;;;20.60;38.27;103550.19;5057399;28;45696;-72
2023/02/07 06:50:22;;;;;;;;;4.33;3.33;;;;;20.59;38.53;103548.47;5057955;28;45384;-72
2023/02/07 06:52:47;;;;;;;;;2.50;2.50;;;;;20.60;38.25;103551.97;5057604;28;45946;-72
2023/02/07 06:55:13;;;;;;;;;3.00;3.00;;;;;20.60;38.43;103559.91;5057300;28;45431;-72
2023/02/07 06:57:38;;;;;;;;;2.25;2.00;;;;;20.59;38.45;103553.75;5054441;28;45436;-72
2023/02/07 07:00:04;;;;;;;;;3.25;2.00;;;;;20.54;38.52;103542.66;5047107;28;45393;-72
2023/02/07 07:02:30;;;;;;;;;2.25;2.25;;;;;20.59;38.58;103555.56;5039146;28;46199;-72
2023/02/07 07:04:55;;;;;;;;;4.75;3.75;;;;;20.22;38.51;103496.25;5057254;28;45422;-72
2023/02/07 07:07:21;;;;;;;;;3.00;2.75;;;;;20.59;38.35;103558.19;5057794;28;45386;-72
2023/02/07 07:09:46;;;;;;;;;6.00;2.00;;;;;20.58;38.55;103557.34;5049759;28;45418;-72
2023/02/07 07:12:12;;;;;;;;;2.50;2.50;;;;;20.58;38.16;103567.09;5057424;28;45636;-72
2023/02/07 07:14:37;;;;;;;;;3.00;2.25;;;;;20.57;38.53;103565.41;5057282;28;45385;-72
2023/02/07 07:17:02;;;;;;;;;3.25;3.25;;;;;20.58;38.43;103564.47;5057520;28;45424;-72
2023/02/07 07:19:28;;;;;;;;;3.75;3.00;;;;;20.57;38.22;103566.25;5057402;28;45345;-72
2023/02/07 07:21:54;;;;;;;;;4.50;3.00;;;;;20.58;38.41;103567.94;5057303;28;45351;-72
2023/02/07 07:24:20;;;;;;;;;1.33;1.33;;;;;20.58;37.97;103572.41;5057493;28;45444;-72
2023/02/07 07:26:45;;;;;;;;;1.75;0.75;;;;;20.58;37.96;103570.56;5056757;28;46268;-72
2023/02/07 07:29:11;;;;;;;;;2.33;2.33;;;;;20.59;38.08;103574.06;5057031;28;45400;-72
2023/02/07 07:31:36;;;;;;;;;5.00;5.00;;;;;20.58;37.96;103575.03;5056785;28;45399;-72
2023/02/07 07:34:01;;;;;;;;;3.00;3.00;;;;;20.55;38.17;103569.94;5056733;28;46422;-72
2023/02/07 07:36:27;;;;;;;;;4.50;2.25;;;;;20.56;37.91;103561.91;5056953;28;45475;-72
2023/02/07 07:38:52;;;;;;;;;3.00;3.00;;;;;20.26;38.25;103521.56;5057216;28;45474;-72
2023/02/07 07:41:18;;;;;;;;;4.00;4.00;;;;;20.59;37.92;103574.06;5056671;28;45793;-71
2023/02/07 07:43:43;;;;;;;;;2.00;2.00;;;;;20.58;37.91;103570.56;5056436;28;45866;-72
2023/02/07 07:46:08;;;;;;;;;4.33;2.00;;;;;20.58;38.15;103575.84;5056129;28;45456;-72
2023/02/07 07:48:34;;;;;;;;;2.00;2.00;;;;;20.59;38.03;103579.34;5057084;28;45336;-71
2023/02/07 07:50:59;;;;;;;;;2.75;2.75;;;;;20.59;38.28;103577.56;5056090;28;45997;-72
2023/02/07 07:53:24;;;;;;;;;5.25;2.75;;;;;20.54;38.13;103563.81;5056663;28;45408;-72
2023/02/07 07:55:52;;;;;;;;;3.00;1.67;;;;;20.60;37.86;103581.06;5056815;28;45376;-72
2023/02/07 07:58:18;;;;;;;;;3.00;3.00;;;;;20.59;38.03;103579.34;5054541;28;45507;-71
2023/02/07 08:00:45;;;;;;;;;4.25;2.75;;;;;20.59;38.26;103582.00;5055848;28;45412;-71
2023/02/07 08:03:11;;;;;;;;;4.00;2.50;;;;;20.53;37.78;103570.06;5056670;28;45321;-72
2023/02/07 08:05:37;;;;;;;;;2.00;2.00;;;;;20.60;38.09;103583.72;5055492;28;45393;-72
2023/02/07 08:08:02;;;;;;;;;2.50;2.25;;;;;20.60;38.21;103581.91;5056695;28;45396;-73
2023/02/07 08:10:27;;;;;;;;;2.75;2.00;;;;;20.60;37.83;103587.22;5056118;28;45739;-72
2023/02/07 08:12:53;;;;;;;;;4.50;4.50;;;;;20.60;37.88;103584.56;5055752;28;45562;-72
2023/02/07 08:15:18;;;;;;;;;2.75;2.75;;;;;20.60;38.18;103581.91;5038698;28;45391;-72
2023/02/07 08:17:43;;;;;;;;;4.50;4.00;;;;;20.57;37.67;103581.25;5056717;28;45925;-72
2023/02/07 08:20:10;;;;;;;;;4.25;3.00;;;;;20.61;37.98;103588.03;5056204;28;45487;-72
2023/02/07 08:22:36;;;;;;;;;5.00;4.00;;;;;20.60;37.95;103589.84;5056352;28;45281;-72
2023/02/07 08:25:01;;;;;;;;;3.75;3.75;;;;;20.59;38.11;103593.44;5056052;28;45411;-72
2023/02/07 08:27:26;;;;;;;;;2.00;2.00;;;;;20.61;37.87;103590.69;5056358;28;45447;-72
2023/02/07 08:29:52;;;;;;;;;3.00;3.00;;;;;20.61;38.16;103590.69;5055562;28;46292;-72
2023/02/07 08:32:17;;;;;;;;;2.67;2.67;;;;;20.59;38.31;103587.28;5056279;28;45428;-71
2023/02/07 08:34:44;;;;;;;;;3.00;1.33;;;;;20.61;38.13;103590.69;5055818;28;45420;-70
2023/02/07 08:37:09;;;;;;;;;3.00;2.33;;;;;20.57;38.01;103592.69;5056445;28;45713;-72
2023/02/07 08:39:35;;;;;;;;;2.50;2.00;;;;;20.51;38.12;103582.53;5055254;28;46086;-72
2023/02/07 08:42:01;;;;;;;;;3.00;3.00;;;;;20.56;38.31;103583.06;5048023;28;45326;-72
2023/02/07 08:44:27;;;;;;;;;1.33;1.33;;;;;20.61;38.12;103593.31;5050911;28;45407;-72
2023/02/07 08:46:52;;;;;;;;;3.00;3.00;;;;;20.63;37.93;103586.16;5037817;28;45394;-72
2023/02/07 08:49:17;;;;;;;;;4.50;4.00;;;;;20.64;38.17;103595.78;5055656;28;45851;-72
2023/02/07 08:51:43;;;;;;;;;5.00;3.75;;;;;20.64;37.95;103587.84;5055500;28;45356;-71
2023/02/07 08:54:08;;;;;;;;;4.00;2.50;;;;;20.53;37.92;103564.78;5055522;28;45353;-72
2023/02/07 08:56:34;;;;;;;;;3.25;2.75;;;;;20.57;38.04;103568.91;5055925;28;45420;-71
2023/02/07 08:58:59;;;;;;;;;4.50;3.50;;;;;20.58;38.04;103581.16;5048720;28;45444;-72
2023/02/07 09:01:25;;;;;;;;;3.00;3.00;;;;;20.68;38.00;103583.19;5055600;28;45469;-72
2023/02/07 09:03:54;;;;;;;;;5.50;4.00;;;;;20.68;37.91;103576.09;5055611;28;45384;-72
2023/02/07 09:06:20;;;;;;;;;3.00;3.00;;;;;20.70;37.51;103586.56;5054887;28;45364;-72
2023/02/07 09:08:45;;;;;;;;;4.25;3.00;;;;;20.71;38.04;103594.41;5055443;28;46124;-72
2023/02/07 09:11:11;;;;;;;;;4.50;3.25;;;;;20.69;37.89;103571.66;5055121;28;45372;-71
2023/02/07 09:13:36;;;;;;;;;3.00;2.00;;;;;20.73;37.71;103573.16;5055750;28;45340;-72
2023/02/07 09:16:01;;;;;;;;;3.00;1.00;;;;;20.75;38.09;103579.16;5055155;28;45536;-73
2023/02/07 09:18:27;;;;;;;;;4.75;3.00;;;;;20.76;37.51;103585.31;5055156;28;46265;-72
2023/02/07 09:20:52;;;;;;;;;3.00;3.00;;;;;20.71;38.05;103572.41;5055854;28;45408;-72
2023/02/07 09:23:18;;;;;;;;;4.25;3.00;;;;;20.78;37.60;103591.34;5055719;28;45387;-71
2023/02/07 09:25:48;;;;;;;;;4.25;3.25;;;;;20.79;38.25;103595.69;5055233;28;45508;-71
2023/02/07 09:28:15;;;;;;;;;3.00;2.00;;;;;20.79;37.65;103583.28;5055612;28;45877;-71
2023/02/07 09:30:42;;;;;;;;;2.75;2.75;;;;;20.79;37.69;103574.53;5055230;28;45495;-71
2023/02/07 09:33:08;;;;;;;;;2.75;2.50;;;;;20.80;37.87;103579.72;5055716;28;45332;-72
2023/02/07 09:35:43;;;;;;;;;4.00;2.25;;;;;20.80;38.15;103589.44;5054887;28;45719;-72
2023/02/07 09:38:19;;;;;;;;;4.00;4.00;;;;;20.80;37.66;103582.34;5054710;28;45637;-72
2023/02/07 09:40:46;;;;;;;;;3.00;3.00;;;;;20.80;37.74;103585.00;5054834;28;45353;-72
2023/02/07 09:43:41;;;;;;;;;3.67;3.67;;;;;20.80;37.92;103579.72;5054978;28;45408;-72
2023/02/07 09:46:33;;;;;;;;;4.25;3.75;;;;;20.82;38.07;103571.66;5054952;28;45344;-72
2023/02/07 09:49:14;;;;;;;;;3.00;3.00;;;;;20.82;37.93;103580.44;5054984;28;47393;-71
2023/02/07 09:51:40;;;;;;;;;1.67;1.00;;;;;20.82;37.70;103569.84;5054167;28;45376;-71
2023/02/07 09:54:17;;;;;;;;;3.00;2.67;;;;;20.79;37.45;103567.41;5054643;28;45412;-70
2023/02/07 09:56:43;;;;;;;;;2.33;2.33;;;;;20.83;37.54;103581.28;5055297;28;45403;-72
2023/02/07 09:59:44;;;;;;;;;1.67;1.67;;;;;20.83;37.85;103568.91;5052785;28;45517;-72
2023/02/07 10:02:25;;;;;;;;;3.00;3.00;;;;;20.83;37.59;103560.13;5054498;28;45603;-72
2023/02/07 10:04:54;;;;;;;;;4.00;4.00;;;;;20.84;37.96;103575.06;5054758;28;45459;-72
2023/02/07 10:07:19;;;;;;;;;4.50;4.00;;;;;20.79;37.98;103575.34;5054783;28;45445;-72
2023/02/07 10:09:46;;;;;;;;;2.00;2.00;;;;;20.85;37.80;103574.94;5054754;28;46404;-72
2023/02/07 10:12:20;;;;;;;;;2.00;2.00;;;;;20.87;37.73;103574.00;5036583;28;45901;-72
2023/02/07 10:14:51;;;;;;;;;3.00;3.00;;;;;20.86;37.95;103578.44;5054805;28;45496;-72
2023/02/07 10:17:54;;;;;;;;;4.00;2.00;;;;;20.87;37.78;103585.41;5055051;28;45260;-72
2023/02/07 10:20:50;;;;;;;;;3.00;3.00;;;;;20.88;37.57;103597.72;5057804;28;46592;-72
2023/02/07 10:23:29;;;;;;;;;3.00;3.00;;;;;20.81;37.61;103586.72;5057742;28;45416;-71
2023/02/07 10:26:01;;;;;;;;;5.33;3.67;;;;;20.86;37.57;103578.44;5052604;28;45336;-72
2023/02/07 10:28:58;;;;;;;;;2.67;2.67;;;;;20.88;37.52;103592.41;5058135;28;45301;-72
2023/02/07 10:31:25;;;;;;;;;2.33;2.33;;;;;20.80;37.38;103590.28;5057520;28;45282;-72
2023/02/07 10:33:59;;;;;;;;;3.00;3.00;;;;;20.89;37.79;103609.16;5057916;28;45475;-71
2023/02/07 10:36:28;;;;;;;;;3.33;3.00;;;;;20.89;37.60;103606.50;5057941;28;45333;-72
2023/02/07 10:39:05;;;;;;;;;3.33;2.67;;;;;20.90;37.22;103605.53;5057419;28;45543;-72
2023/02/07 10:41:36;;;;;;;;;4.67;2.67;;;;;20.85;37.60;103601.41;5057819;28;46256;-72
2023/02/07 10:44:04;;;;;;;;;3.00;2.50;;;;;20.92;37.58;103601.00;5057845;28;45486;-72
2023/02/07 10:46:30;;;;;;;;;2.25;2.25;;;;;20.91;37.35;103599.28;5057655;28;45444;-72
2023/02/07 10:48:55;;;;;;;;;2.50;2.50;;;;;20.89;37.19;103601.22;5058026;28;45415;-72
2023/02/07 10:51:26;;;;;;;;;3.00;3.00;;;;;20.89;37.11;103594.13;5057370;28;46154;-72
2023/02/07 10:54:08;;;;;;;;;4.00;3.00;;;;;20.93;37.79;103597.38;5057110;28;45331;-72
2023/02/07 10:56:44;;;;;;;;;2.00;2.00;;;;;20.93;37.56;103602.69;5047554;28;45239;-72
2023/02/07 10:59:31;;;;;;;;;3.00;3.00;;;;;20.92;37.63;103583.28;5056280;28;45618;-71
2023/02/07 11:01:56;;;;;;;;;2.00;1.00;;;;;20.91;37.19;103573.69;5056735;28;46348;-72
2023/02/07 11:04:37;;;;;;;;;1.00;1.00;;;;;20.90;37.51;103558.75;5057246;28;45526;-72
2023/02/07 11:07:06;;;;;;;;;2.00;2.00;;;;;20.94;37.40;103567.34;5057385;28;45484;-72
2023/02/07 11:09:36;;;;;;;;;1.67;1.67;;;;;20.88;37.62;103557.16;5044540;28;45284;-72
2023/02/07 11:12:13;;;;;;;;;2.67;2.00;;;;;20.93;37.58;103574.41;5057190;28;46357;-72
2023/02/07 11:14:39;;;;;;;;;2.25;2.25;;;;;20.91;37.31;103559.59;5057281;28;45417;-71
2023/02/07 11:17:04;;;;;;;;;1.33;1.33;;;;;20.93;37.53;103565.63;5057497;28;45420;-72
2023/02/07 11:19:30;;;;;;;;;0.00;0.00;;;;;20.94;37.09;103575.28;5057587;28;45494;-72
2023/02/07 11:22:13;;;;;;;;;5.00;2.25;;;;;20.93;37.38;103563.84;5057111;28;45482;-72
2023/02/07 11:24:38;;;;;;;;;2.00;2.00;;;;;20.86;37.33;103544.03;5057270;28;45408;-72
2023/02/07 11:27:20;;;;;;;;;3.00;1.00;;;;;20.93;37.44;103550.59;5056876;28;45284;-72
2023/02/07 11:29:54;;;;;;;;;4.00;3.00;;;;;20.93;37.79;103550.59;5056517;28;45621;-72
2023/02/07 11:32:22;;;;;;;;;2.00;2.00;;;;;20.92;37.54;103556.84;5046206;28;46231;-72
2023/02/07 11:34:50;;;;;;;;;2.33;1.33;;;;;20.92;37.47;103545.44;5056607;28;45453;-71